Time;durP1;ratioP1;P1;durP2;ratioP2;P2;SDS_P1;SDS_P2;PMS_P1;PMS_P2;Temp;Humidity;BMP_temperature;BMP_pressure;BME280_temperature;BME280_humidity;BME280_pressure;Samples;Min_cycle;Max_cycle;Signal;HPM_P1;HPM_P2
2023/09/04 00:01:18;;;;;;;4.47;2.53;;;;;;;17.03;100.00;101799.05;5231861;55;1140801;-76
2023/09/04 00:06:24;;;;;;;3.30;2.07;;;;;;;16.93;100.00;101788.78;5210997;55;1141221;-75
2023/09/04 00:11:31;;;;;;;5.70;2.47;;;;;;;16.90;100.00;101790.38;5211439;55;1140937;-75
2023/09/04 00:16:36;;;;;;;3.43;2.07;;;;;;;16.87;100.00;101779.45;5231839;55;1140916;-76
2023/09/04 00:21:42;;;;;;;8.30;2.77;;;;;;;16.92;100.00;101778.58;5145155;55;1140777;-75
2023/09/04 00:26:48;;;;;;;4.87;2.27;;;;;;;16.97;100.00;101784.36;5143482;56;1140842;-75
2023/09/04 00:31:53;;;;;;;4.22;2.80;;;;;;;17.01;100.00;101784.96;5215467;55;1140811;-76
2023/09/04 00:36:59;;;;;;;3.90;2.37;;;;;;;17.05;100.00;101788.59;5251240;55;1140898;-76
2023/09/04 00:42:05;;;;;;;5.63;2.80;;;;;;;16.95;100.00;101788.17;5231105;55;1140727;-75
2023/09/04 00:47:14;;;;;;;4.20;2.20;;;;;;;16.79;100.00;101785.94;5227774;55;1140813;-76
2023/09/04 00:52:19;;;;;;;7.07;3.03;;;;;;;16.68;100.00;101783.29;5231806;55;1140728;-76
2023/09/04 00:57:26;;;;;;;5.17;2.67;;;;;;;16.67;100.00;101774.91;5211138;55;1140947;-75
2023/09/04 01:02:32;;;;;;;4.60;2.57;;;;;;;16.69;100.00;101764.46;5210940;55;1140717;-75
2023/09/04 01:07:40;;;;;;;5.60;2.73;;;;;;;16.74;100.00;101758.26;5231236;55;1140977;-75
2023/09/04 01:13:32;;;;;;;6.63;2.70;;;;;;;16.65;100.00;101770.21;5211463;55;1140738;-76
2023/09/04 01:18:38;;;;;;;4.80;2.70;;;;;;;16.45;100.00;101768.66;4589604;62;1141015;-74
2023/09/04 01:23:44;;;;;;;3.00;2.50;;;;;;;16.36;100.00;101768.06;4701233;60;1198159;-74
2023/09/04 01:29:08;;;;;;;6.37;3.00;;;;;;;16.33;100.00;101756.33;4713890;60;1235155;-74
2023/09/04 01:34:19;;;;;;;4.40;2.67;;;;;;;16.39;100.00;101766.48;4682739;61;1141097;-74
2023/09/04 01:39:25;;;;;;;4.13;2.40;;;;;;;16.46;100.00;101759.68;4701957;61;1141034;-74
2023/09/04 01:44:32;;;;;;;5.43;3.37;;;;;;;16.39;100.00;101770.49;4691624;61;1141012;-73
2023/09/04 01:49:38;;;;;;;6.30;2.60;;;;;;;16.25;100.00;101751.23;4698881;61;1140934;-74
2023/09/04 01:54:44;;;;;;;3.83;2.43;;;;;;;16.09;100.00;101771.17;4623721;61;1140991;-73
2023/09/04 01:59:49;;;;;;;8.60;2.40;;;;;;;15.90;100.00;101784.77;4654783;60;1152508;-74
2023/09/04 02:04:55;;;;;;;12.80;3.22;;;;;;;15.76;100.00;101796.55;4700037;59;1189742;-73
2023/09/04 02:10:00;;;;;;;6.47;2.85;;;;;;;15.69;100.00;101810.87;4717591;59;1196250;-74
2023/09/04 02:15:07;;;;;;;4.27;2.37;;;;;;;15.65;100.00;101814.73;4809658;59;1183516;-73
2023/09/04 02:20:13;;;;;;;5.10;2.57;;;;;;;15.70;100.00;101830.39;4866649;58;1140938;-74
2023/09/04 02:25:18;;;;;;;6.93;3.33;;;;;;;15.83;100.00;101831.12;4815329;60;1140855;-74
2023/09/04 02:30:24;;;;;;;5.70;3.30;;;;;;;15.99;100.00;101822.27;4872307;58;1188877;-74
2023/09/04 02:35:31;;;;;;;5.80;3.27;;;;;;;16.11;100.00;101817.27;4873705;59;1140774;-74
2023/09/04 02:40:37;;;;;;;7.83;3.20;;;;;;;16.19;100.00;101826.02;4893256;59;1140863;-73
2023/09/04 02:45:42;;;;;;;6.23;3.20;;;;;;;16.27;100.00;101824.90;4873377;59;1166182;-74
2023/09/04 02:50:48;;;;;;;5.10;3.03;;;;;;;16.33;100.00;101817.73;4883747;59;1141195;-75
2023/09/04 02:55:54;;;;;;;4.57;2.93;;;;;;;16.30;100.00;101805.97;4885349;59;1140975;-73
2023/09/04 03:01:00;;;;;;;6.20;3.30;;;;;;;16.11;100.00;101801.27;4904794;59;1140684;-74
2023/09/04 03:06:12;;;;;;;5.57;2.90;;;;;;;15.91;100.00;101803.33;4918749;58;1140882;-73
2023/09/04 03:11:17;;;;;;;4.00;3.27;;;;;;;15.80;100.00;101811.34;4884439;57;1248927;-74
2023/09/04 03:16:23;;;;;;;5.03;2.70;;;;;;;15.74;100.00;101811.33;4914945;58;1141666;-73
2023/09/04 03:21:31;;;;;;;6.07;3.00;;;;;;;15.85;100.00;101808.33;4787104;60;1224061;-73
2023/09/04 03:26:36;;;;;;;7.03;2.60;;;;;;;15.94;100.00;101808.91;4847427;59;1247323;-73
2023/09/04 03:31:43;;;;;;;5.13;2.50;;;;;;;16.02;100.00;101824.70;4819807;59;1255005;-73
2023/09/04 03:36:49;;;;;;;3.03;2.73;;;;;;;16.02;100.00;101831.85;4766073;58;1257632;-74
2023/09/04 03:41:54;;;;;;;4.83;2.77;;;;;;;15.94;100.00;101845.78;4796172;60;1247363;-73
2023/09/04 03:47:00;;;;;;;5.20;2.27;;;;;;;15.93;100.00;101838.75;4779923;60;1240424;-73
2023/09/04 03:52:06;;;;;;;4.63;2.57;;;;;;;15.95;100.00;101849.30;4748394;59;1255650;-73
2023/09/04 03:57:14;;;;;;;10.77;3.00;;;;;;;15.80;100.00;101852.21;4759564;59;1183445;-73
2023/09/04 04:02:19;;;;;;;5.47;2.80;;;;;;;15.68;100.00;101852.33;4808092;59;1143047;-73
2023/09/04 04:07:25;;;;;;;4.67;2.70;;;;;;;15.70;100.00;101859.73;4826671;59;1255792;-73
2023/09/04 04:12:31;;;;;;;2.87;2.67;;;;;;;15.77;100.00;101864.45;4833996;59;1241792;-73
2023/09/04 04:17:37;;;;;;;6.33;2.80;;;;;;;15.78;100.00;101860.81;4853172;59;1252232;-73
2023/09/04 04:22:43;;;;;;;5.30;3.20;;;;;;;15.79;100.00;101865.66;4833824;59;1258743;-73
2023/09/04 04:27:50;;;;;;;4.92;2.83;;;;;;;15.75;100.00;101861.53;4843360;58;1150188;-75
2023/09/04 04:32:55;;;;;;;3.17;2.77;;;;;;;15.67;100.00;101867.96;4930093;58;1140872;-73
2023/09/04 04:38:01;;;;;;;8.17;2.97;;;;;;;15.62;100.00;101856.79;4954690;58;1140902;-73
2023/09/04 04:43:07;;;;;;;7.57;2.93;;;;;;;15.68;100.00;101855.84;4923885;58;1213603;-73
2023/09/04 04:48:13;;;;;;;5.43;3.00;;;;;;;15.77;100.00;101860.45;4836027;59;1140826;-73
2023/09/04 04:53:19;;;;;;;11.13;2.60;;;;;;;15.76;100.00;101864.08;4855270;59;1140951;-73
2023/09/04 04:58:26;;;;;;;5.50;2.90;;;;;;;15.66;100.00;101869.77;4857848;59;1142994;-73
2023/09/04 05:03:32;;;;;;;3.57;2.93;;;;;;;15.54;100.00;101868.03;4863465;58;1253953;-75
2023/09/04 05:08:38;;;;;;;5.67;2.87;;;;;;;15.44;100.00;101871.87;4885385;59;1140914;-76
2023/09/04 05:13:45;;;;;;;10.83;3.23;;;;;;;15.38;100.00;101872.36;4866331;59;1161792;-75
2023/09/04 05:18:51;;;;;;;3.53;3.23;;;;;;;15.31;100.00;101879.59;4866481;58;1146863;-74
2023/09/04 05:23:57;;;;;;;7.08;3.30;;;;;;;15.36;100.00;101866.77;4885950;57;1141079;-75
2023/09/04 05:29:03;;;;;;;6.20;3.08;;;;;;;15.36;100.00;101880.95;4918789;57;1141019;-75
2023/09/04 05:34:09;;;;;;;8.30;3.20;;;;;;;15.33;100.00;101885.66;4899971;58;1140894;-75
2023/09/04 05:39:15;;;;;;;5.90;3.73;;;;;;;15.36;100.00;101890.76;4892899;58;1141170;-75
2023/09/04 05:44:20;;;;;;;5.80;3.40;;;;;;;15.48;100.00;101889.34;4845488;58;1140815;-75
2023/09/04 05:49:26;;;;;;;4.60;3.23;;;;;;;15.61;100.00;101883.94;4899475;57;1140933;-75
2023/09/04 05:54:32;;;;;;;8.60;3.60;;;;;;;15.71;100.00;101891.62;4899666;58;1140853;-74
2023/09/04 05:59:37;;;;;;;3.67;3.20;;;;;;;15.76;100.00;101876.09;4918340;58;1140697;-74
2023/09/04 06:04:43;;;;;;;5.93;3.83;;;;;;;15.87;100.00;101877.09;4766619;58;1140964;-75
2023/09/04 06:09:48;;;;;;;8.63;3.80;;;;;;;16.00;100.00;101881.82;4732948;59;1140800;-74
2023/09/04 06:14:54;;;;;;;7.06;4.18;;;;;;;16.14;100.00;101878.42;4732997;60;1140943;-75
2023/09/04 06:20:00;;;;;;;5.70;4.45;;;;;;;16.33;100.00;101885.82;4750200;60;1140977;-75
2023/09/04 06:25:06;;;;;;;7.97;4.47;;;;;;;16.44;100.00;101891.14;4731561;60;1140980;-75
2023/09/04 06:30:12;;;;;;;6.93;4.47;;;;;;;16.58;100.00;101889.17;4766803;59;1140849;-74
2023/09/04 06:35:18;;;;;;;9.67;4.27;;;;;;;16.97;100.00;101892.61;4902240;59;1141145;-75
2023/09/04 06:40:24;;;;;;;6.10;3.60;;;;;;;16.97;100.00;101892.61;4817796;59;1141131;-75
2023/09/04 06:45:30;;;;;;;4.73;3.27;;;;;;;17.23;100.00;101891.31;4817981;59;1140861;-75
2023/09/04 06:50:35;;;;;;;6.73;3.80;;;;;;;17.44;100.00;101897.99;4836678;60;1141400;-75
2023/09/04 06:55:41;;;;;;;5.80;2.53;;;;;;;17.61;100.00;101899.23;4816842;60;1141062;-74
2023/09/04 07:00:47;;;;;;;4.47;3.00;;;;;;;17.83;100.00;101903.64;4761099;58;1140918;-74
2023/09/04 07:05:53;;;;;;;4.22;2.98;;;;;;;18.01;100.00;101898.53;4888398;58;1140948;-76
2023/09/04 07:10:58;;;;;;;6.12;3.40;;;;;;;18.00;100.00;101904.37;4937147;57;1140824;-74
2023/09/04 07:16:04;;;;;;;7.15;3.62;;;;;;;18.09;100.00;101916.09;4898266;58;1140748;-74
2023/09/04 07:21:10;;;;;;;6.65;3.27;;;;;;;18.25;100.00;101924.48;4899001;58;1140858;-73
2023/09/04 07:26:16;;;;;;;8.88;2.82;;;;;;;18.34;100.00;101934.38;4869981;58;1141254;-75
2023/09/04 07:31:22;;;;;;;8.85;3.12;;;;;;;18.37;100.00;101936.80;4819029;59;1141005;-75
2023/09/04 07:36:28;;;;;;;6.30;3.72;;;;;;;18.63;100.00;101937.22;4887636;58;1141138;-75
2023/09/04 07:41:33;;;;;;;7.30;2.83;;;;;;;18.97;100.00;101922.45;4833994;60;1141374;-75
2023/09/04 07:46:40;;;;;;;6.40;3.10;;;;;;;19.19;100.00;101928.06;4887525;58;1140936;-75
2023/09/04 07:51:45;;;;;;;4.08;2.45;;;;;;;19.35;100.00;101922.13;4857951;59;1140881;-75
2023/09/04 07:56:51;;;;;;;3.42;2.22;;;;;;;19.45;100.00;101921.63;4857715;59;1141009;-76
2023/09/04 08:01:57;;;;;;;6.25;3.05;;;;;;;19.57;100.00;101920.50;4801002;59;1140841;-76
2023/09/04 08:07:02;;;;;;;2.97;2.17;;;;;;;19.75;100.00;101920.63;4782315;58;1141134;-75
2023/09/04 08:12:08;;;;;;;5.62;2.65;;;;;;;19.93;100.00;101918.89;4774609;58;1140910;-75
2023/09/04 08:17:14;;;;;;;4.37;1.72;;;;;;;20.23;100.00;101920.48;4823106;59;1141169;-75
2023/09/04 08:22:20;;;;;;;2.95;2.08;;;;;;;20.54;100.00;101926.45;4828834;59;1140870;-75
2023/09/04 08:27:25;;;;;;;2.50;2.25;;;;;;;20.58;100.00;101927.85;4826106;59;1140843;-74
2023/09/04 08:32:31;;;;;;;2.22;1.82;;;;;;;20.33;100.00;101935.20;4941416;57;1140574;-75
2023/09/04 08:37:37;;;;;;;4.50;2.47;;;;;;;20.44;100.00;101942.28;4808712;59;1140957;-75
2023/09/04 08:42:45;;;;;;;2.58;1.60;;;;;;;20.74;100.00;101941.98;4771477;58;1140983;-75
2023/09/04 08:47:54;;;;;;;2.65;1.70;;;;;;;20.99;100.00;101941.74;4800322;60;1141179;-76
2023/09/04 08:52:59;;;;;;;5.04;1.80;;;;;;;20.84;100.00;101937.38;4828518;59;1141088;-76
2023/09/04 08:58:06;;;;;;;1.82;1.35;;;;;;;20.99;100.00;101938.55;4810220;59;1140971;-75
2023/09/04 09:03:13;;;;;;;2.27;1.40;;;;;;;21.13;100.00;101939.87;4790277;60;1140882;-75
2023/09/04 09:08:19;;;;;;;4.08;1.70;;;;;;;21.27;100.00;101932.63;4749454;61;1140805;-75
2023/09/04 09:13:24;;;;;;;3.62;1.80;;;;;;;21.44;100.00;101932.28;4731036;60;1140670;-75
2023/09/04 09:18:42;;;;;;;3.47;1.42;;;;;;;21.58;100.00;101930.38;4731355;61;1140950;-76
2023/09/04 09:23:48;;;;;;;4.35;2.00;;;;;;;21.83;100.00;101922.49;4776315;58;1140659;-75
2023/09/04 09:28:54;;;;;;;8.63;2.33;;;;;;;22.07;100.00;101913.23;4770189;60;1140540;-75
2023/09/04 09:34:00;;;;;;;2.67;1.62;;;;;;;22.14;100.00;101912.10;4788795;60;1141093;-76
2023/09/04 09:39:07;;;;;;;3.58;2.10;;;;;;;22.10;100.00;101911.57;4808848;60;1141244;-75
2023/09/04 09:44:12;;;;;;;8.00;2.00;;;;;;;21.91;100.00;101911.25;4872398;58;1141155;-75
2023/09/04 09:49:18;;;;;;;5.95;1.57;;;;;;;21.94;100.00;101911.45;4790734;59;1140783;-76
2023/09/04 09:54:42;;;;;;;2.90;1.40;;;;;;;21.99;100.00;101916.74;4889539;59;1140862;-75
2023/09/04 09:59:50;;;;;;;2.05;1.62;;;;;;;22.13;100.00;101913.95;4852952;59;1141030;-75
2023/09/04 10:04:56;;;;;;;2.72;1.35;;;;;;;22.53;100.00;101909.73;4772131;60;1140942;-76
2023/09/04 10:10:08;;;;;;;2.95;1.62;;;;;;;22.65;100.00;101914.66;4817719;59;1141331;-75
2023/09/04 10:15:21;;;;;;;4.65;2.15;;;;;;;22.38;100.00;101922.48;4964229;58;1140728;-75
2023/09/04 10:20:28;;;;;;;5.37;2.30;;;;;;;22.26;100.00;101922.44;4939414;57;1141048;-75
2023/09/04 10:26:00;;;;;;;1.87;1.65;;;;;;;22.40;100.00;101917.78;4866389;59;1140906;-76
2023/09/04 10:31:07;;;;;;;2.47;1.50;;;;;;;22.62;100.00;101914.13;4855761;59;1140946;-75
2023/09/04 10:36:13;;;;;;;2.67;1.92;;;;;;;22.94;98.28;101910.20;4884056;58;1141263;-75
2023/09/04 10:41:20;;;;;;;2.42;1.42;;;;;;;23.09;98.95;101910.40;4865505;58;1138967;-74
2023/09/04 10:46:26;;;;;;;2.58;1.50;;;;;;;23.13;100.00;101907.71;4866519;58;1138948;-74
2023/09/04 10:51:37;;;;;;;2.55;1.30;;;;;;;23.26;95.52;101906.70;4883952;58;1140874;-75
2023/09/04 10:57:00;;;;;;;2.70;1.50;;;;;;;23.19;96.78;101908.91;4866040;58;1138745;-75
2023/09/04 11:02:28;;;;;;;3.97;1.40;;;;;;;23.32;96.31;101902.50;4861360;58;1138942;-75
2023/09/04 11:07:36;;;;;;;3.12;1.78;;;;;;;23.34;94.86;101899.97;4864952;59;1138938;-74
2023/09/04 11:12:45;;;;;;;4.83;2.00;;;;;;;23.50;96.68;101900.48;4884378;58;1139019;-74
2023/09/04 11:17:52;;;;;;;2.52;1.70;;;;;;;23.45;94.73;101894.22;4866859;58;1138828;-74
2023/09/04 11:22:58;;;;;;;3.10;1.50;;;;;;;23.27;93.99;101901.64;4803398;59;1138792;-76
2023/09/04 11:28:06;;;;;;;3.42;1.50;;;;;;;23.06;95.19;101895.91;4903448;58;1138896;-73
2023/09/04 11:33:14;;;;;;;6.97;1.62;;;;;;;23.02;93.85;101902.14;4758487;60;1138816;-74
2023/09/04 11:38:29;;;;;;;3.72;2.00;;;;;;;23.01;95.33;101894.21;4882181;58;1138647;-74
2023/09/04 11:43:36;;;;;;;7.08;1.90;;;;;;;22.92;94.96;101897.38;4918567;57;1138621;-74
2023/09/04 11:48:42;;;;;;;3.67;1.57;;;;;;;22.89;96.59;101893.70;4899645;58;1138666;-73
2023/09/04 11:53:48;;;;;;;3.12;1.27;;;;;;;22.99;96.79;101882.23;4900237;58;1138964;-75
2023/09/04 11:58:55;;;;;;;2.52;1.70;;;;;;;23.13;94.78;101864.53;4899632;58;1138897;-74
2023/09/04 12:04:03;;;;;;;1.30;1.22;;;;;;;23.13;94.78;101864.53;4918171;59;1138621;-75
2023/09/04 12:09:08;;;;;;;2.65;1.45;;;;;;;23.21;94.27;101875.84;4898609;58;1138984;-75
2023/09/04 12:14:13;;;;;;;1.87;1.45;;;;;;;23.36;93.83;101870.11;4896329;58;1138704;-75
2023/09/04 12:19:27;;;;;;;2.00;1.77;;;;;;;23.48;93.26;101871.44;4914838;58;1138642;-75
2023/09/04 12:24:33;;;;;;;1.60;1.50;;;;;;;23.51;93.69;101872.48;4971547;57;1138897;-75
2023/09/04 12:29:38;;;;;;;2.33;1.70;;;;;;;23.84;95.06;101861.93;4950016;57;1138872;-75
2023/09/04 12:34:44;;;;;;;3.02;1.40;;;;;;;23.88;92.93;101855.67;4875289;59;1138898;-74
2023/09/04 12:39:49;;;;;;;2.42;1.80;;;;;;;23.75;92.70;101857.58;4812991;59;1192352;-75
2023/09/04 12:44:56;;;;;;;3.72;1.80;;;;;;;23.69;93.18;101848.80;4807026;59;1138940;-75
2023/09/04 12:50:01;;;;;;;3.35;1.55;;;;;;;23.64;92.83;101840.39;4806944;60;1139104;-75
2023/09/04 12:55:07;;;;;;;4.10;1.77;;;;;;;23.92;91.57;101835.91;4828312;60;1138849;-75
2023/09/04 13:00:14;;;;;;;1.35;1.22;;;;;;;24.06;92.78;101840.59;4808857;59;1138647;-74
2023/09/04 13:05:19;;;;;;;4.90;1.57;;;;;;;24.19;91.69;101839.01;4809347;59;1139243;-74
2023/09/04 13:10:25;;;;;;;1.70;1.60;;;;;;;24.27;92.35;101839.53;4829274;58;1138633;-74
2023/09/04 13:15:31;;;;;;;4.37;1.90;;;;;;;24.37;93.39;101827.13;4731282;59;1138915;-74
2023/09/04 13:20:37;;;;;;;4.80;1.87;;;;;;;24.42;91.51;101827.45;4711722;58;1138584;-74
2023/09/04 13:25:42;;;;;;;1.32;1.22;;;;;;;24.25;89.92;101823.14;4651568;61;1138483;-76
2023/09/04 13:30:48;;;;;;;5.97;2.10;;;;;;;24.27;91.09;101812.48;4790081;59;1138872;-75
2023/09/04 13:35:53;;;;;;;2.00;1.90;;;;;;;24.25;89.76;101814.52;4787832;59;1138986;-75
2023/09/04 13:41:00;;;;;;;3.77;1.33;;;;;;;24.18;90.72;101819.75;4835082;59;1139142;-76
2023/09/04 13:46:06;;;;;;;4.37;1.40;;;;;;;24.08;89.22;101819.13;4795287;59;1139066;-74
2023/09/04 13:51:13;;;;;;;1.90;1.42;;;;;;;24.04;89.64;101824.55;4834959;58;1138796;-75
2023/09/04 13:56:19;;;;;;;2.17;1.53;;;;;;;23.96;89.48;101826.45;4827236;58;1138826;-75
2023/09/04 14:01:24;;;;;;;5.80;2.22;;;;;;;23.95;90.82;101813.45;5007277;57;1138919;-76
2023/09/04 14:06:31;;;;;;;1.82;1.30;;;;;;;24.07;91.91;101817.95;4987691;58;1138916;-75
2023/09/04 14:11:36;;;;;;;3.27;1.40;;;;;;;24.05;89.99;101816.77;4963238;57;1138593;-75
2023/09/04 14:16:42;;;;;;;8.20;1.77;;;;;;;24.00;88.84;101811.03;4885812;59;1138869;-75
2023/09/04 14:21:48;;;;;;;1.30;1.20;;;;;;;24.09;89.73;101809.16;4905637;58;1138531;-75
2023/09/04 14:26:53;;;;;;;5.45;1.85;;;;;;;24.15;90.33;101801.17;4906938;58;1138538;-75
2023/09/04 14:31:59;;;;;;;6.70;1.72;;;;;;;24.17;89.88;101805.05;4886037;57;1138534;-74
2023/09/04 14:37:05;;;;;;;5.37;3.52;;;;;;;24.31;91.93;101802.14;4918853;57;1139039;-76
2023/09/04 14:42:10;;;;;;;4.10;2.60;;;;;;;24.44;91.67;101814.05;4907394;57;1139030;-76
2023/09/04 14:47:16;;;;;;;7.27;3.40;;;;;;;24.40;90.76;101808.69;4886078;57;1138862;-75
2023/09/04 14:52:22;;;;;;;3.37;2.17;;;;;;;24.44;91.00;101806.48;4914283;59;1138577;-75
2023/09/04 14:57:28;;;;;;;4.80;2.27;;;;;;;24.54;91.67;101807.08;4845250;59;1138985;-76
2023/09/04 15:02:34;;;;;;;4.45;2.85;;;;;;;24.57;91.06;101805.88;4845616;59;1139077;-76
2023/09/04 15:07:41;;;;;;;6.80;3.02;;;;;;;24.52;90.39;101800.49;4864772;59;1139044;-75
2023/09/04 15:12:47;;;;;;;8.28;3.50;;;;;;;24.51;91.41;101790.70;4853888;57;1139283;-74
2023/09/04 15:17:53;;;;;;;8.70;2.35;;;;;;;24.50;91.17;101790.88;4864163;58;1139416;-74
2023/09/04 15:22:58;;;;;;;8.83;2.52;;;;;;;24.46;90.87;101789.53;4907138;58;1138887;-73
2023/09/04 15:28:04;;;;;;;2.05;1.87;;;;;;;24.50;91.51;101792.22;4927790;57;1138931;-74
2023/09/04 15:33:10;;;;;;;5.15;2.87;;;;;;;24.68;91.91;101779.77;4908460;56;1138823;-74
2023/09/04 15:38:16;;;;;;;3.40;1.90;;;;;;;24.81;89.99;101784.89;4873917;58;1138542;-73
2023/09/04 15:43:23;;;;;;;4.37;2.55;;;;;;;24.80;89.02;101787.77;4902054;58;1139759;-73
2023/09/04 15:48:29;;;;;;;5.50;1.82;;;;;;;24.89;88.49;101791.61;4896128;58;1138830;-74
2023/09/04 15:53:34;;;;;;;3.02;2.12;;;;;;;24.85;86.64;101788.09;4838883;58;1138718;-73
2023/09/04 15:58:40;;;;;;;2.42;2.22;;;;;;;24.70;86.84;101784.48;4860270;58;1138841;-75
2023/09/04 16:03:47;;;;;;;4.42;2.75;;;;;;;24.55;88.29;101799.30;4883012;59;1138647;-75
2023/09/04 16:08:52;;;;;;;2.37;2.02;;;;;;;24.50;89.94;101807.09;4885851;58;1138728;-75
2023/09/04 16:13:58;;;;;;;6.60;2.33;;;;;;;24.47;90.13;101797.98;4908053;58;1138712;-74
2023/09/04 16:19:03;;;;;;;5.95;2.50;;;;;;;24.38;90.43;101797.20;4911093;58;1139032;-74
2023/09/04 16:24:09;;;;;;;5.12;4.20;;;;;;;24.29;90.34;101787.44;4861137;59;1138662;-74
2023/09/04 16:29:15;;;;;;;4.25;3.02;;;;;;;24.14;89.39;101796.78;4908050;58;1138838;-72
2023/09/04 16:34:21;;;;;;;2.20;2.10;;;;;;;24.02;89.78;101794.14;4927427;57;1138734;-73
2023/09/04 16:39:27;;;;;;;3.77;2.60;;;;;;;23.99;90.53;101786.89;4906918;58;1138879;-75
2023/09/04 16:44:32;;;;;;;4.22;2.67;;;;;;;24.03;89.84;101778.77;4916312;58;1139498;-74
2023/09/04 16:49:38;;;;;;;4.35;2.75;;;;;;;23.99;89.95;101775.56;4955715;58;1138967;-74
2023/09/04 16:54:43;;;;;;;4.65;2.62;;;;;;;23.93;90.00;101783.55;4937361;58;1139164;-73
2023/09/04 16:59:49;;;;;;;8.95;5.15;;;;;;;23.97;91.03;101777.63;4936730;58;1139012;-74
2023/09/04 17:04:55;;;;;;;17.52;10.78;;;;;;;23.98;91.20;101790.13;4937523;58;1138810;-74
2023/09/04 17:10:00;;;;;;;11.88;7.78;;;;;;;23.90;90.83;101786.60;4954904;58;1142962;-74
2023/09/04 17:15:08;;;;;;;7.85;5.10;;;;;;;23.89;91.62;101782.21;4936916;58;1141003;-74
2023/09/04 17:20:14;;;;;;;22.60;10.60;;;;;;;23.87;90.95;101795.05;4833614;58;1139059;-74
2023/09/04 17:25:20;;;;;;;41.48;17.60;;;;;;;23.76;91.65;101794.93;4872693;59;1142978;-74
2023/09/04 17:30:25;;;;;;;28.27;15.48;;;;;;;23.60;92.56;101788.23;4853467;59;1142788;-74
2023/09/04 17:35:33;;;;;;;23.85;14.00;;;;;;;23.53;93.59;101785.90;4853828;59;1143160;-74
2023/09/04 17:40:40;;;;;;;58.28;34.43;;;;;;;23.49;94.68;101791.61;4898508;57;1142993;-73
2023/09/04 17:45:50;;;;;;;100.12;65.25;;;;;;;23.45;95.81;101788.06;4963731;57;1142712;-74
2023/09/04 17:50:56;;;;;;;43.95;26.95;;;;;;;23.39;96.77;101790.09;4909056;57;1145121;-73
2023/09/04 17:56:01;;;;;;;6.65;3.33;;;;;;;23.36;97.70;101784.55;4906590;58;1142856;-74
2023/09/04 18:01:10;;;;;;;5.45;2.80;;;;;;;23.34;97.72;101785.23;4927300;58;1139018;-74
2023/09/04 18:06:14;;;;;;;7.37;4.87;;;;;;;23.43;98.41;101786.05;4907728;58;1138928;-74
2023/09/04 18:11:20;;;;;;;6.10;4.25;;;;;;;23.48;99.20;101784.52;4906242;59;1138769;-73
2023/09/04 18:16:25;;;;;;;15.38;3.65;;;;;;;23.50;99.75;101781.14;4926568;58;1138665;-73
2023/09/04 18:21:31;;;;;;;6.70;4.05;;;;;;;23.53;100.00;101789.95;4906350;57;1140949;-73
2023/09/04 18:26:38;;;;;;;9.18;4.10;;;;;;;23.45;100.00;101790.77;4891057;59;1141041;-73
2023/09/04 18:31:44;;;;;;;13.60;4.33;;;;;;;23.34;100.00;101797.38;4868117;59;1140961;-73
2023/09/04 18:36:49;;;;;;;18.98;6.17;;;;;;;23.24;100.00;101796.70;4850802;59;1143055;-73
2023/09/04 18:41:55;;;;;;;14.35;4.58;;;;;;;23.14;100.00;101795.53;4948124;58;1143013;-73
2023/09/04 18:47:00;;;;;;;21.02;10.72;;;;;;;23.05;100.00;101801.12;4862122;58;1143006;-72
2023/09/04 18:52:07;;;;;;;15.43;7.58;;;;;;;22.96;100.00;101810.21;4846652;59;1145210;-74
2023/09/04 18:57:13;;;;;;;12.53;7.30;;;;;;;22.92;100.00;101813.74;4915766;58;1143091;-72
2023/09/04 19:02:19;;;;;;;14.68;5.15;;;;;;;22.93;100.00;101807.84;4780966;60;1143089;-73
2023/09/04 19:07:25;;;;;;;25.43;7.05;;;;;;;22.85;100.00;101807.34;4925628;59;1143024;-73
2023/09/04 19:12:31;;;;;;;21.57;6.90;;;;;;;22.73;100.00;101809.50;4868110;58;1143052;-75
2023/09/04 19:17:36;;;;;;;24.90;8.65;;;;;;;22.62;100.00;101819.24;4886484;57;1143363;-73
2023/09/04 19:22:42;;;;;;;15.10;7.40;;;;;;;22.54;100.00;101818.40;4850858;59;1142989;-74
2023/09/04 19:27:47;;;;;;;19.48;10.65;;;;;;;22.49;100.00;101810.80;4817715;59;1143372;-74
2023/09/04 19:32:53;;;;;;;17.92;10.65;;;;;;;22.44;100.00;101810.47;4926869;58;1145280;-75
2023/09/04 19:37:59;;;;;;;20.32;7.65;;;;;;;22.37;100.00;101818.86;4929650;58;1145226;-74
2023/09/04 19:43:05;;;;;;;9.35;7.22;;;;;;;22.22;100.00;101814.61;4942917;58;1142852;-73
2023/09/04 19:48:11;;;;;;;6.66;3.06;;;;;;;22.13;100.00;101822.33;4828658;58;1268044;-73
2023/09/04 19:53:16;;;;;;;11.05;4.70;;;;;;;21.94;100.00;101818.50;4840744;59;1140993;-74
2023/09/04 19:58:24;;;;;;;11.55;5.87;;;;;;;21.76;100.00;101820.77;4863535;59;1143281;-75
2023/09/04 20:03:29;;;;;;;5.78;4.37;;;;;;;21.63;100.00;101825.75;4838041;59;1143085;-75
2023/09/04 20:08:35;;;;;;;6.03;4.62;;;;;;;21.70;100.00;101823.24;4851986;58;1141128;-73
2023/09/04 20:13:45;;;;;;;7.97;4.17;;;;;;;21.77;100.00;101824.31;4847680;59;1141009;-74
2023/09/04 20:18:48;;;;;;;12.23;4.90;;;;;;;21.84;100.00;101819.14;4858179;58;1140804;-72
2023/09/04 20:24:00;;;;;;;9.20;4.70;;;;;;;21.82;100.00;101817.11;4825224;58;1143115;-73
2023/09/04 20:29:05;;;;;;;17.52;5.90;;;;;;;21.71;100.00;101808.28;4820414;59;1140890;-73
2023/09/04 20:34:11;;;;;;;5.17;4.25;;;;;;;21.66;100.00;101814.66;4858841;58;1143118;-75
2023/09/04 20:39:17;;;;;;;7.78;3.70;;;;;;;21.70;100.00;101820.05;4839562;59;1140988;-75
2023/09/04 20:44:23;;;;;;;6.63;3.67;;;;;;;21.73;100.00;101817.55;4848636;59;1141095;-76
2023/09/04 20:49:28;;;;;;;10.95;6.62;;;;;;;21.60;100.00;101811.75;4864948;58;1140933;-72
2023/09/04 20:54:34;;;;;;;6.92;3.08;;;;;;;21.51;100.00;101810.03;4881124;58;1143135;-73
2023/09/04 20:59:39;;;;;;;6.85;4.42;;;;;;;21.43;100.00;101794.66;4938658;58;1140764;-73
2023/09/04 21:04:45;;;;;;;5.90;3.27;;;;;;;21.33;100.00;101802.00;4812850;59;1141209;-73
2023/09/04 23:24:51;;;;;;;;;;;;;;;19.09;100.00;101825.31;4774425;60;1141081;-74
2023/09/04 23:29:57;;;;;;;4.70;3.35;;;;;;;19.10;100.00;101835.02;4791675;59;978302;-74
2023/09/04 23:35:27;;;;;;;6.23;3.73;;;;;;;19.11;100.00;101835.87;4810330;58;1138725;-74
2023/09/04 23:45:27;;;;;;;7.83;3.17;;;;;;;19.01;100.00;101836.38;4755419;59;1140801;-74
2023/09/04 23:50:33;;;;;;;4.45;3.02;;;;;;;19.01;100.00;101831.02;4759895;59;1140769;-74
2023/09/04 23:55:38;;;;;;;4.97;2.83;;;;;;;18.90;100.00;101829.33;4878865;59;1141054;-74
